createdAt,value
2022-08-05T00:00:20.169Z,6.30
2022-08-05T00:02:51.472Z,9.70
2022-08-05T00:06:03.096Z,5.95
2022-08-05T00:08:32.990Z,7.03
2022-08-05T00:11:04.324Z,7.82
2022-08-05T00:13:39.979Z,9.15
2022-08-05T00:16:12.864Z,7.38
2022-08-05T00:18:44.432Z,7.80
2022-08-05T00:21:14.831Z,11.30
2022-08-05T00:24:05.174Z,9.75
2022-08-05T00:26:35.636Z,24.25
2022-08-05T00:29:04.876Z,41.10
2022-08-05T00:31:41.504Z,17.48
2022-08-05T00:34:56.059Z,7.57
2022-08-05T00:37:14.332Z,8.00
2022-08-05T00:39:57.806Z,7.82
2022-08-05T00:42:37.343Z,7.18
2022-08-05T00:45:11.655Z,8.60
2022-08-05T00:47:56.570Z,7.60
2022-08-05T00:50:27.027Z,7.07
2022-08-05T00:52:57.496Z,7.70
2022-08-05T00:55:42.202Z,9.38
2022-08-05T00:58:13.987Z,7.90
2022-08-05T01:00:44.409Z,7.75
2022-08-05T01:03:22.558Z,8.00
2022-08-05T01:05:54.518Z,8.57
2022-08-05T01:08:40.846Z,8.60
2022-08-05T01:11:22.110Z,8.73
2022-08-05T01:14:03.126Z,9.13
2022-08-05T01:16:38.003Z,9.13
2022-08-05T01:19:30.112Z,13.25
2022-08-05T01:22:28.257Z,7.90
2022-08-05T01:25:40.739Z,7.95
2022-08-05T01:28:26.507Z,9.63
2022-08-05T01:31:01.578Z,7.55
2022-08-05T01:33:37.578Z,9.40
2022-08-05T01:36:12.988Z,10.98
2022-08-05T01:38:49.911Z,7.63
2022-08-05T01:41:25.770Z,10.98
2022-08-05T01:43:57.958Z,7.60
2022-08-05T01:46:42.984Z,7.40
2022-08-05T01:49:23.420Z,8.52
2022-08-05T01:51:58.849Z,9.10
2022-08-05T01:54:34.129Z,10.15
2022-08-05T01:58:10.034Z,9.13
2022-08-05T02:00:13.257Z,15.95
2022-08-05T02:02:54.392Z,8.02
2022-08-05T02:05:28.550Z,16.55
2022-08-05T02:08:01.360Z,11.05
2022-08-05T02:10:38.822Z,8.35
2022-08-05T02:13:20.489Z,10.98
2022-08-05T02:15:59.448Z,8.05
2022-08-05T02:18:35.009Z,8.60
2022-08-05T02:21:14.978Z,9.95
2022-08-05T02:23:47.166Z,8.05
2022-08-05T02:26:23.202Z,12.27
2022-08-05T02:28:58.343Z,8.13
2022-08-05T02:31:34.632Z,10.13
2022-08-05T02:34:11.992Z,8.60
2022-08-05T02:36:45.412Z,8.67
2022-08-05T02:39:21.525Z,9.48
2022-08-05T02:42:00.486Z,8.93
2022-08-05T02:44:32.579Z,8.18
2022-08-05T02:47:05.087Z,10.13
2022-08-05T02:49:40.599Z,7.75
2022-08-05T02:52:13.656Z,8.80
2022-08-05T02:55:01.587Z,7.95
2022-08-05T02:58:10.177Z,10.37
2022-08-05T03:00:25.454Z,15.07
2022-08-05T03:02:59.727Z,14.48
2022-08-05T03:06:55.096Z,9.43
2022-08-05T03:08:26.872Z,8.90
2022-08-05T03:11:47.611Z,9.73
2022-08-05T03:13:51.532Z,10.63
2022-08-05T03:16:31.856Z,8.43
2022-08-05T03:19:12.983Z,9.77
2022-08-05T03:21:48.668Z,11.80
2022-08-05T03:24:26.856Z,10.83
2022-08-05T03:27:00.210Z,10.83
2022-08-05T03:29:45.733Z,9.32
2022-08-05T03:32:20.668Z,8.20
2022-08-05T03:34:51.774Z,10.73
2022-08-05T03:37:22.815Z,8.43
2022-08-05T03:39:59.096Z,9.45
2022-08-05T03:42:32.478Z,14.53
2022-08-05T03:45:21.476Z,10.20
2022-08-05T03:47:57.119Z,11.50
2022-08-05T03:50:35.707Z,9.13
2022-08-05T03:55:51.626Z,9.93
2022-08-05T03:56:17.201Z,9.83
2022-08-05T03:58:56.843Z,9.83
2022-08-05T04:01:28.714Z,9.50
2022-08-05T04:04:09.996Z,9.43
2022-08-05T04:06:47.975Z,9.47
2022-08-05T04:09:26.605Z,9.00
2022-08-05T04:11:57.163Z,10.27
2022-08-05T04:14:29.836Z,13.53
2022-08-05T04:17:02.142Z,11.02
2022-08-05T04:19:32.798Z,10.10
2022-08-05T04:22:10.323Z,10.30
2022-08-05T04:24:44.189Z,11.07
2022-08-05T04:27:15.209Z,8.80
2022-08-05T04:29:44.877Z,13.45
2022-08-05T04:32:14.682Z,12.35
2022-08-05T04:34:48.957Z,18.87
2022-08-05T04:37:20.071Z,13.73
2022-08-05T04:39:52.966Z,9.52
2022-08-05T04:42:25.371Z,8.65
2022-08-05T04:44:56.027Z,10.95
2022-08-05T04:47:25.517Z,10.02
2022-08-05T04:50:01.756Z,10.30
2022-08-05T04:52:34.477Z,9.93
2022-08-05T04:55:14.491Z,12.15
2022-08-05T04:57:47.505Z,8.65
2022-08-05T05:00:17.748Z,12.82
2022-08-05T05:02:46.737Z,12.82
2022-08-05T05:05:26.333Z,9.45
2022-08-05T05:08:02.992Z,8.50
2022-08-05T05:10:33.685Z,10.45
2022-08-05T05:13:04.573Z,15.35
2022-08-05T05:15:57.927Z,13.10
2022-08-05T05:18:28.746Z,9.20
2022-08-05T05:21:03.936Z,13.55
2022-08-05T05:23:39.088Z,9.32
2022-08-05T05:26:28.460Z,13.25
2022-08-05T05:29:10.052Z,8.55
2022-08-05T05:31:46.370Z,11.13
2022-08-05T05:34:18.992Z,11.70
2022-08-05T05:36:52.878Z,12.90
2022-08-05T05:39:23.488Z,14.02
2022-08-05T05:41:54.768Z,11.05
2022-08-05T05:44:36.455Z,8.88
2022-08-05T05:47:21.330Z,8.35
2022-08-05T05:50:01.314Z,11.52
2022-08-05T05:52:34.716Z,10.77
2022-08-05T05:55:13.679Z,11.63
2022-08-05T05:57:52.568Z,12.27
2022-08-05T06:00:31.605Z,7.47
2022-08-05T06:03:39.583Z,7.00
2022-08-05T06:05:56.690Z,9.82
2022-08-05T06:08:32.274Z,11.48
2022-08-05T06:11:04.220Z,9.32
2022-08-05T06:13:40.521Z,9.38
2022-08-05T06:16:30.596Z,9.18
2022-08-05T06:19:02.202Z,10.48
2022-08-05T06:21:37.575Z,8.63
2022-08-05T06:24:11.609Z,10.98
2022-08-05T06:26:51.784Z,8.48
2022-08-05T06:29:23.808Z,9.65
2022-08-05T06:32:24.822Z,10.05
2022-08-05T06:34:57.192Z,9.80
2022-08-05T06:37:56.407Z,7.40
2022-08-05T06:40:21.061Z,9.30
2022-08-05T06:42:53.985Z,8.20
2022-08-05T06:45:44.853Z,7.25
2022-08-05T06:48:54.780Z,8.48
2022-08-05T06:51:02.077Z,9.82
2022-08-05T06:53:39.293Z,8.00
2022-08-05T06:56:26.341Z,8.10
2022-08-05T06:58:59.413Z,7.05
2022-08-05T07:01:32.257Z,10.07
2022-08-05T07:04:03.270Z,11.25
2022-08-05T07:06:32.556Z,9.27
2022-08-05T07:09:04.351Z,7.50
2022-08-05T07:11:37.113Z,6.68
2022-08-05T07:14:29.675Z,10.90
2022-08-05T07:17:59.180Z,8.95
2022-08-05T07:22:43.452Z,7.70
2022-08-05T07:25:23.118Z,7.57
2022-08-05T07:28:05.960Z,8.18
2022-08-05T07:30:41.349Z,7.50
2022-08-05T07:33:16.636Z,6.60
2022-08-05T07:36:03.694Z,13.23
2022-08-05T07:38:43.315Z,10.05
2022-08-05T07:42:14.383Z,6.30
2022-08-05T07:44:14.258Z,6.80
2022-08-05T07:46:52.208Z,9.02
2022-08-05T07:49:23.614Z,10.68
2022-08-05T07:51:54.861Z,6.65
2022-08-05T07:54:31.329Z,10.98
2022-08-05T07:57:17.996Z,7.97
2022-08-05T07:59:53.656Z,11.77
2022-08-05T08:03:14.730Z,9.82
2022-08-05T08:05:22.106Z,7.50
2022-08-05T08:07:59.145Z,5.70
2022-08-05T08:10:31.416Z,5.93
2022-08-05T08:13:01.850Z,7.85
2022-08-05T08:16:33.309Z,7.25
2022-08-05T08:18:23.286Z,7.35
2022-08-05T08:21:01.937Z,7.50
2022-08-05T08:24:01.970Z,7.88
2022-08-05T08:26:27.094Z,6.07
2022-08-05T08:29:09.681Z,6.35
2022-08-05T08:31:50.073Z,6.15
2022-08-05T08:34:30.196Z,5.60
2022-08-05T08:37:05.119Z,9.27
2022-08-05T08:39:37.400Z,4.47
2022-08-05T08:42:33.670Z,5.07
2022-08-05T08:45:19.288Z,4.80
2022-08-05T08:48:11.743Z,5.38
2022-08-05T08:51:23.113Z,7.68
2022-08-05T08:53:45.065Z,6.03
2022-08-05T08:56:15.903Z,5.82
2022-08-05T08:58:48.615Z,3.97
2022-08-05T09:01:19.192Z,5.88
2022-08-05T09:03:54.567Z,4.82
2022-08-05T09:06:36.288Z,5.72
2022-08-05T09:09:06.126Z,3.95
2022-08-05T09:11:52.612Z,4.68
2022-08-05T09:14:58.633Z,3.15
2022-08-05T09:17:41.417Z,3.28
2022-08-05T09:20:06.014Z,4.55
2022-08-05T09:23:09.730Z,8.70
2022-08-05T09:26:03.412Z,4.95
2022-08-05T09:28:35.367Z,4.97
2022-08-05T09:31:22.387Z,5.80
2022-08-05T09:34:04.736Z,10.75
2022-08-05T09:36:45.693Z,5.57
2022-08-05T09:39:41.661Z,4.55
2022-08-05T09:42:24.557Z,4.07
2022-08-05T09:45:17.273Z,6.80
2022-08-05T09:47:56.189Z,4.97
2022-08-05T09:50:44.197Z,3.80
2022-08-05T09:53:25.639Z,6.15
2022-08-05T09:56:04.917Z,3.28
2022-08-05T09:58:42.616Z,6.10
2022-08-05T10:01:31.610Z,3.45
2022-08-05T10:04:10.280Z,4.18
2022-08-05T10:06:54.926Z,3.75
2022-08-05T10:09:30.270Z,3.33
2022-08-05T10:12:30.671Z,8.52
2022-08-05T10:15:17.326Z,3.55
2022-08-05T10:18:12.824Z,6.38
2022-08-05T10:20:47.961Z,8.88
2022-08-05T10:23:34.730Z,2.42
2022-08-05T10:26:14.210Z,3.85
2022-08-05T10:28:48.381Z,2.70
2022-08-05T10:32:54.654Z,5.97
2022-08-05T10:34:08.493Z,2.75
2022-08-05T10:36:39.341Z,4.60
2022-08-05T10:39:24.014Z,5.80
2022-08-05T10:42:04.666Z,2.67
2022-08-05T10:44:36.617Z,3.83
2022-08-05T10:47:26.645Z,6.32
2022-08-05T10:50:33.096Z,3.50
2022-08-05T10:53:00.363Z,3.22
2022-08-05T10:55:38.561Z,3.53
2022-08-05T10:58:21.792Z,2.65
2022-08-05T11:01:09.622Z,5.25
2022-08-05T11:04:02.664Z,2.60
2022-08-05T11:06:33.676Z,4.78
2022-08-05T11:09:24.158Z,3.03
2022-08-05T11:12:03.309Z,3.05
2022-08-05T11:15:01.153Z,4.80
2022-08-05T11:17:57.417Z,11.35
2022-08-05T11:20:51.724Z,7.72
2022-08-05T11:23:56.912Z,2.60
2022-08-05T11:26:32.243Z,2.92
2022-08-05T11:29:12.146Z,2.53
2022-08-05T11:31:54.030Z,2.28
2022-08-05T11:34:50.945Z,2.78
2022-08-05T11:38:27.824Z,4.47
2022-08-05T11:41:34.329Z,2.47
2022-08-05T11:44:07.400Z,4.03
2022-08-05T11:47:09.634Z,4.03
2022-08-05T11:49:33.982Z,2.53
2022-08-05T11:52:08.826Z,4.00
2022-08-05T11:54:41.818Z,2.97
2022-08-05T11:57:24.785Z,4.93
2022-08-05T11:59:55.959Z,2.38
2022-08-05T12:02:32.995Z,2.45
2022-08-05T12:05:06.839Z,9.07
2022-08-05T12:08:03.398Z,2.92
2022-08-05T12:10:43.018Z,4.80
2022-08-05T12:13:47.634Z,2.40
2022-08-05T12:16:14.580Z,6.25
2022-08-05T12:18:48.720Z,2.10
2022-08-05T12:21:26.979Z,2.22
2022-08-05T12:24:07.070Z,3.15
2022-08-05T12:26:38.323Z,2.20
2022-08-05T12:29:11.861Z,6.68
2022-08-05T12:31:53.179Z,2.95
2022-08-05T12:34:26.941Z,2.42
2022-08-05T12:36:57.818Z,4.55
2022-08-05T12:39:37.469Z,2.80
2022-08-05T12:42:14.415Z,2.47
2022-08-05T12:44:47.531Z,8.48
2022-08-05T12:47:30.611Z,7.18
2022-08-05T12:50:06.012Z,2.35
2022-08-05T12:52:38.861Z,2.20
2022-08-05T12:55:25.220Z,7.43
2022-08-05T12:58:49.053Z,2.78
2022-08-05T13:02:00.873Z,3.97
2022-08-05T13:03:43.100Z,2.20
2022-08-05T13:06:18.021Z,7.75
2022-08-05T13:08:52.027Z,4.55
2022-08-05T13:11:59.634Z,10.27
2022-08-05T13:14:24.957Z,2.72
2022-08-05T13:17:25.073Z,6.20
2022-08-05T13:20:04.788Z,16.35
2022-08-05T13:22:36.149Z,5.65
2022-08-05T13:25:19.283Z,4.20
2022-08-05T13:27:54.052Z,8.25
2022-08-05T13:30:34.683Z,4.30
2022-08-05T13:33:05.977Z,1.73
2022-08-05T13:35:47.317Z,3.63
2022-08-05T13:38:30.878Z,5.03
2022-08-05T13:41:06.490Z,4.15
2022-08-05T13:43:45.858Z,5.50
2022-08-05T13:49:14.169Z,2.05
2022-08-05T13:51:46.332Z,4.20
2022-08-05T13:54:20.830Z,3.42
2022-08-05T13:56:54.168Z,1.73
2022-08-05T13:59:27.232Z,2.10
2022-08-05T14:02:01.778Z,3.70
2022-08-05T14:04:51.810Z,5.47
2022-08-05T14:07:25.634Z,3.35
2022-08-05T14:10:19.056Z,9.25
2022-08-05T14:12:57.925Z,1.90
2022-08-05T14:16:04.490Z,2.30
2022-08-05T14:18:23.230Z,5.18
2022-08-05T14:20:54.468Z,1.95
2022-08-05T14:23:37.285Z,8.77
2022-08-05T14:26:06.860Z,1.58
2022-08-05T14:28:35.742Z,1.60
2022-08-05T14:32:03.858Z,1.60
2022-08-05T14:34:12.446Z,2.25
2022-08-05T14:36:43.154Z,3.22
2022-08-05T14:39:23.112Z,4.53
2022-08-05T14:42:19.497Z,1.70
2022-08-05T14:44:42.682Z,1.83
2022-08-05T14:48:03.700Z,1.52
2022-08-05T14:50:17.425Z,1.88
2022-08-05T14:52:53.431Z,1.90
2022-08-05T14:55:38.610Z,2.33
2022-08-05T14:58:12.125Z,2.08
2022-08-05T15:00:59.725Z,2.30
2022-08-05T15:03:33.684Z,3.42
2022-08-05T15:06:12.796Z,10.23
2022-08-05T15:08:59.292Z,2.00
2022-08-05T15:11:51.844Z,5.10
2022-08-05T15:14:34.247Z,2.97
2022-08-05T15:17:45.770Z,6.03
2022-08-05T15:20:02.903Z,2.50
2022-08-05T15:22:37.522Z,2.88
2022-08-05T15:25:11.619Z,2.65
2022-08-05T15:27:51.783Z,5.63
2022-08-05T15:30:21.536Z,2.30
2022-08-05T15:32:52.056Z,2.13
2022-08-05T15:35:24.177Z,2.28
2022-08-05T15:38:34.491Z,2.17
2022-08-05T15:41:20.780Z,5.95
2022-08-05T15:43:45.915Z,2.13
2022-08-05T15:46:16.572Z,2.15
2022-08-05T15:48:54.798Z,2.80
2022-08-05T15:52:09.676Z,3.35
2022-08-05T15:54:34.382Z,1.77
2022-08-05T15:57:07.545Z,2.03
2022-08-05T15:59:38.410Z,3.90
2022-08-05T16:02:09.567Z,2.40
2022-08-05T16:04:44.204Z,9.52
2022-08-05T16:07:17.948Z,7.45
2022-08-05T16:09:47.645Z,4.22
2022-08-05T16:12:19.800Z,13.32
2022-08-05T16:14:52.741Z,8.80
2022-08-05T16:17:23.904Z,6.47
2022-08-05T16:20:05.041Z,5.10
2022-08-05T16:22:42.116Z,5.88
2022-08-05T16:25:11.687Z,33.80
2022-08-05T16:28:01.063Z,20.95
2022-08-05T16:30:32.748Z,47.38
2022-08-05T16:33:03.291Z,14.63
2022-08-05T16:35:42.501Z,5.47
2022-08-05T16:38:24.700Z,2.60
2022-08-05T16:41:01.270Z,3.05
2022-08-05T16:43:32.653Z,11.85
2022-08-05T16:46:23.628Z,9.48
2022-08-05T16:48:53.573Z,3.67
2022-08-05T16:51:30.745Z,5.13
2022-08-05T16:54:21.838Z,13.45
2022-08-05T16:56:55.058Z,35.13
2022-08-05T16:59:25.383Z,11.40
2022-08-05T17:01:59.236Z,15.07
2022-08-05T17:04:31.419Z,14.52
2022-08-05T17:07:11.605Z,27.58
2022-08-05T17:09:57.506Z,11.65
2022-08-05T17:12:51.584Z,3.97
2022-08-05T17:15:20.950Z,26.60
2022-08-05T17:17:54.534Z,7.35
2022-08-05T17:20:26.890Z,5.53
2022-08-05T17:22:58.755Z,6.25
2022-08-05T17:25:33.755Z,3.22
2022-08-05T17:28:11.182Z,17.15
2022-08-05T17:30:52.115Z,3.72
2022-08-05T17:33:22.190Z,4.97
2022-08-05T17:36:08.619Z,21.02
2022-08-05T17:38:43.025Z,24.70
2022-08-05T17:42:18.567Z,44.75
2022-08-05T17:44:07.230Z,18.27
2022-08-05T17:46:41.643Z,21.02
2022-08-05T17:49:12.766Z,33.63
2022-08-05T17:51:43.783Z,22.85
2022-08-05T17:54:23.271Z,17.83
2022-08-05T17:56:55.020Z,10.82
2022-08-05T17:59:28.706Z,18.77
2022-08-05T18:02:03.139Z,32.83
2022-08-05T18:04:42.271Z,43.33
2022-08-05T18:07:23.312Z,20.98
2022-08-05T18:09:59.584Z,29.77
2022-08-05T18:12:33.962Z,19.35
2022-08-05T18:15:06.274Z,16.60
2022-08-05T18:17:59.135Z,22.08
2022-08-05T18:20:31.526Z,48.30
2022-08-05T18:23:09.081Z,33.50
2022-08-05T18:25:44.737Z,31.50
2022-08-05T18:28:21.899Z,25.08
2022-08-05T18:30:52.881Z,23.08
2022-08-05T18:33:24.186Z,24.63
2022-08-05T18:36:03.588Z,13.50
2022-08-05T18:38:36.669Z,21.60
2022-08-05T18:41:56.228Z,26.00
2022-08-05T18:44:05.764Z,15.13
2022-08-05T18:46:36.421Z,18.92
2022-08-05T18:49:19.632Z,21.90
2022-08-05T18:52:10.875Z,8.25
2022-08-05T18:54:46.055Z,13.25
2022-08-05T18:57:17.968Z,14.88
2022-08-05T19:00:03.061Z,8.65
2022-08-05T19:02:34.093Z,8.15
2022-08-05T19:06:05.696Z,8.40
2022-08-05T19:07:55.692Z,11.32
2022-08-05T19:10:28.557Z,15.65
2022-08-05T19:12:59.245Z,13.18
2022-08-05T19:16:00.235Z,17.02
2022-08-05T19:18:22.945Z,10.73
2022-08-05T19:20:54.892Z,5.85
2022-08-05T19:24:06.102Z,13.43
2022-08-05T19:26:16.894Z,9.90
2022-08-05T19:28:49.531Z,8.13
2022-08-05T19:31:22.994Z,14.65
2022-08-05T19:33:56.264Z,7.22
2022-08-05T19:36:29.241Z,8.15
2022-08-05T19:39:02.024Z,12.88
2022-08-05T19:42:05.984Z,7.10
2022-08-05T19:44:29.209Z,8.27
2022-08-05T19:47:02.691Z,11.98
2022-08-05T19:49:33.283Z,5.05
2022-08-05T19:52:08.546Z,11.10
2022-08-05T19:54:53.483Z,8.50
2022-08-05T19:57:46.516Z,8.20
2022-08-05T20:00:16.223Z,5.78
2022-08-05T20:02:52.055Z,8.65
2022-08-05T20:05:27.095Z,9.05
2022-08-05T20:08:16.074Z,5.93
2022-08-05T20:10:45.634Z,12.73
2022-08-05T20:13:30.272Z,12.10
2022-08-05T20:16:10.544Z,8.02
2022-08-05T20:18:41.889Z,10.05
2022-08-05T20:21:16.914Z,10.88
2022-08-05T20:23:53.293Z,7.88
2022-08-05T20:26:26.571Z,5.18
2022-08-05T20:29:00.655Z,10.57
2022-08-05T20:31:41.975Z,15.13
2022-08-05T20:34:22.678Z,12.85
2022-08-05T20:36:54.110Z,4.32
2022-08-05T20:39:28.317Z,7.05
2022-08-05T20:42:05.890Z,4.28
2022-08-05T20:44:38.059Z,7.13
2022-08-05T20:47:08.729Z,4.07
2022-08-05T20:49:42.797Z,4.82
2022-08-05T20:52:15.281Z,5.65
2022-08-05T20:55:16.076Z,7.13
2022-08-05T20:57:43.806Z,6.07
2022-08-05T21:00:51.830Z,3.28
2022-08-05T21:03:13.490Z,4.03
2022-08-05T21:05:54.558Z,3.47
2022-08-05T21:08:28.095Z,4.20
2022-08-05T21:11:10.138Z,5.95
2022-08-05T21:13:47.776Z,4.43
2022-08-05T21:16:29.691Z,3.63
2022-08-05T21:19:03.727Z,4.32
2022-08-05T21:21:44.216Z,4.45
2022-08-05T21:24:23.017Z,4.25
2022-08-05T21:26:58.080Z,6.30
2022-08-05T21:29:31.343Z,5.72
2022-08-05T21:32:06.760Z,6.68
2022-08-05T21:34:36.545Z,3.08
2022-08-05T21:37:08.431Z,6.78
2022-08-05T21:39:40.625Z,3.97
2022-08-05T21:42:30.783Z,3.17
2022-08-05T21:45:00.395Z,3.67
2022-08-05T21:47:54.848Z,4.90
2022-08-05T21:50:22.176Z,5.13
2022-08-05T21:52:59.105Z,6.15
2022-08-05T21:56:01.758Z,4.10
2022-08-05T21:58:30.839Z,4.95
2022-08-05T22:01:01.839Z,6.05
2022-08-05T22:03:51.854Z,4.97
2022-08-05T22:06:35.283Z,3.53
2022-08-05T22:09:15.386Z,8.00
2022-08-05T22:11:51.511Z,5.18
2022-08-05T22:14:35.011Z,3.65
2022-08-05T22:17:07.694Z,5.85
2022-08-05T22:20:00.580Z,3.65
2022-08-05T22:22:31.900Z,5.30
2022-08-05T22:25:27.346Z,4.72
2022-08-05T22:28:04.827Z,5.78
2022-08-05T22:30:56.116Z,11.73
2022-08-05T22:33:57.387Z,14.25
2022-08-05T22:36:18.691Z,7.72
2022-08-05T22:38:51.178Z,4.25
2022-08-05T22:42:09.898Z,6.32
2022-08-05T22:44:19.147Z,4.57
2022-08-05T22:46:52.094Z,5.22
2022-08-05T22:50:17.611Z,4.97
2022-08-05T22:52:22.930Z,6.88
2022-08-05T22:55:02.222Z,4.90
2022-08-05T22:57:38.787Z,6.35
2022-08-05T23:00:17.839Z,10.05
2022-08-05T23:02:52.667Z,6.40
2022-08-05T23:05:23.829Z,5.78
2022-08-05T23:07:55.026Z,7.30
2022-08-05T23:10:25.850Z,4.50
2022-08-05T23:12:57.914Z,4.43
2022-08-05T23:15:29.999Z,7.15
2022-08-05T23:18:11.848Z,6.38
2022-08-05T23:20:47.633Z,5.22
2022-08-05T23:23:19.936Z,4.85
2022-08-05T23:25:55.346Z,5.95
2022-08-05T23:28:29.511Z,6.88
2022-08-05T23:31:17.200Z,5.28
2022-08-05T23:34:04.953Z,4.22
2022-08-05T23:36:44.517Z,4.25
2022-08-05T23:39:32.243Z,4.63
2022-08-05T23:42:14.482Z,5.47
2022-08-05T23:44:54.435Z,4.55
2022-08-05T23:47:24.947Z,5.55
2022-08-05T23:49:55.660Z,8.93
2022-08-05T23:52:30.830Z,5.07
2022-08-05T23:55:02.636Z,7.03
2022-08-05T23:57:37.327Z,5.78
